sensor_id;sensor_type;location;lat;lon;timestamp;P1;durP1;ratioP1;P2;durP2;ratioP2
44694;SDS011;32845;59.422;17.930;2022-12-01T00:01:48;5.78;;;1.80;;
44694;SDS011;32845;59.422;17.930;2022-12-01T00:06:19;2.67;;;1.80;;
44694;SDS011;32845;59.422;17.930;2022-12-01T00:10:51;3.03;;;1.98;;
44694;SDS011;32845;59.422;17.930;2022-12-01T00:15:24;6.28;;;1.98;;
44694;SDS011;32845;59.422;17.930;2022-12-01T00:19:56;2.38;;;1.65;;
44694;SDS011;32845;59.422;17.930;2022-12-01T00:24:27;2.85;;;1.65;;
44694;SDS011;32845;59.422;17.930;2022-12-01T00:28:58;8.07;;;1.80;;
44694;SDS011;32845;59.422;17.930;2022-12-01T00:33:28;2.80;;;1.70;;
44694;SDS011;32845;59.422;17.930;2022-12-01T00:37:59;2.92;;;1.75;;
44694;SDS011;32845;59.422;17.930;2022-12-01T00:42:30;2.42;;;1.60;;
44694;SDS011;32845;59.422;17.930;2022-12-01T00:47:00;3.35;;;1.92;;
44694;SDS011;32845;59.422;17.930;2022-12-01T00:51:31;2.60;;;1.65;;
44694;SDS011;32845;59.422;17.930;2022-12-01T00:56:02;2.83;;;1.50;;
44694;SDS011;32845;59.422;17.930;2022-12-01T01:00:33;2.10;;;1.50;;
44694;SDS011;32845;59.422;17.930;2022-12-01T01:05:07;3.97;;;1.95;;
44694;SDS011;32845;59.422;17.930;2022-12-01T01:09:49;3.42;;;1.77;;
44694;SDS011;32845;59.422;17.930;2022-12-01T01:14:20;3.47;;;1.65;;
44694;SDS011;32845;59.422;17.930;2022-12-01T01:18:51;2.58;;;1.50;;
44694;SDS011;32845;59.422;17.930;2022-12-01T01:23:22;2.85;;;1.52;;
44694;SDS011;32845;59.422;17.930;2022-12-01T01:27:52;3.63;;;1.75;;
44694;SDS011;32845;59.422;17.930;2022-12-01T01:32:28;2.65;;;1.67;;
44694;SDS011;32845;59.422;17.930;2022-12-01T01:36:58;2.15;;;1.52;;
44694;SDS011;32845;59.422;17.930;2022-12-01T01:41:29;3.28;;;1.75;;
44694;SDS011;32845;59.422;17.930;2022-12-01T01:46:00;2.22;;;1.45;;
44694;SDS011;32845;59.422;17.930;2022-12-01T01:50:36;2.40;;;1.30;;
44694;SDS011;32845;59.422;17.930;2022-12-01T01:55:06;2.30;;;1.42;;
44694;SDS011;32845;59.422;17.930;2022-12-01T01:59:39;1.70;;;1.27;;
44694;SDS011;32845;59.422;17.930;2022-12-01T02:04:17;3.35;;;1.50;;
44694;SDS011;32845;59.422;17.930;2022-12-01T02:08:49;2.55;;;1.70;;
44694;SDS011;32845;59.422;17.930;2022-12-01T02:18:47;1.90;;;1.50;;
44694;SDS011;32845;59.422;17.930;2022-12-01T02:33:25;2.43;;;1.57;;
44694;SDS011;32845;59.422;17.930;2022-12-01T02:38:08;6.20;;;1.48;;
44694;SDS011;32845;59.422;17.930;2022-12-01T02:47:32;2.20;;;1.50;;
44694;SDS011;32845;59.422;17.930;2022-12-01T02:52:05;1.80;;;1.35;;
44694;SDS011;32845;59.422;17.930;2022-12-01T02:56:37;3.53;;;1.50;;
44694;SDS011;32845;59.422;17.930;2022-12-01T03:06:10;2.78;;;1.30;;
44694;SDS011;32845;59.422;17.930;2022-12-01T03:10:56;1.77;;;1.30;;
44694;SDS011;32845;59.422;17.930;2022-12-01T03:15:33;3.40;;;1.50;;
44694;SDS011;32845;59.422;17.930;2022-12-01T03:20:21;2.47;;;1.20;;
44694;SDS011;32845;59.422;17.930;2022-12-01T03:25:02;1.58;;;1.10;;
44694;SDS011;32845;59.422;17.930;2022-12-01T03:29:52;2.70;;;1.42;;
44694;SDS011;32845;59.422;17.930;2022-12-01T03:39:23;2.25;;;1.30;;
44694;SDS011;32845;59.422;17.930;2022-12-01T03:44:02;2.15;;;1.38;;
44694;SDS011;32845;59.422;17.930;2022-12-01T03:48:37;2.65;;;1.15;;
44694;SDS011;32845;59.422;17.930;2022-12-01T03:53:12;1.73;;;1.20;;
44694;SDS011;32845;59.422;17.930;2022-12-01T04:02:31;2.15;;;1.40;;
44694;SDS011;32845;59.422;17.930;2022-12-01T04:07:02;1.75;;;1.20;;
44694;SDS011;32845;59.422;17.930;2022-12-01T04:11:38;2.20;;;1.20;;
44694;SDS011;32845;59.422;17.930;2022-12-01T04:16:27;2.63;;;1.25;;
44694;SDS011;32845;59.422;17.930;2022-12-01T04:20:58;3.08;;;1.20;;
44694;SDS011;32845;59.422;17.930;2022-12-01T04:25:28;1.75;;;1.30;;
44694;SDS011;32845;59.422;17.930;2022-12-01T04:29:59;1.98;;;1.23;;
44694;SDS011;32845;59.422;17.930;2022-12-01T04:34:29;1.20;;;1.00;;
44694;SDS011;32845;59.422;17.930;2022-12-01T04:39:05;1.50;;;1.10;;
44694;SDS011;32845;59.422;17.930;2022-12-01T04:43:36;3.58;;;1.48;;
44694;SDS011;32845;59.422;17.930;2022-12-01T04:48:07;2.05;;;1.17;;
44694;SDS011;32845;59.422;17.930;2022-12-01T04:52:37;1.30;;;0.93;;
44694;SDS011;32845;59.422;17.930;2022-12-01T04:57:08;1.65;;;1.30;;
44694;SDS011;32845;59.422;17.930;2022-12-01T05:01:39;1.73;;;1.30;;
44694;SDS011;32845;59.422;17.930;2022-12-01T05:06:11;4.13;;;1.10;;
44694;SDS011;32845;59.422;17.930;2022-12-01T05:10:48;3.50;;;1.20;;
44694;SDS011;32845;59.422;17.930;2022-12-01T05:15:23;1.60;;;1.08;;
44694;SDS011;32845;59.422;17.930;2022-12-01T05:19:54;3.03;;;1.40;;
44694;SDS011;32845;59.422;17.930;2022-12-01T05:24:43;2.08;;;1.30;;
44694;SDS011;32845;59.422;17.930;2022-12-01T05:29:14;1.92;;;1.05;;
44694;SDS011;32845;59.422;17.930;2022-12-01T05:33:44;2.05;;;1.00;;
44694;SDS011;32845;59.422;17.930;2022-12-01T05:38:15;1.92;;;1.10;;
44694;SDS011;32845;59.422;17.930;2022-12-01T05:42:51;1.05;;;0.95;;
44694;SDS011;32845;59.422;17.930;2022-12-01T05:47:22;1.88;;;1.20;;
44694;SDS011;32845;59.422;17.930;2022-12-01T05:51:53;1.48;;;1.08;;
44694;SDS011;32845;59.422;17.930;2022-12-01T05:56:23;1.67;;;1.20;;
44694;SDS011;32845;59.422;17.930;2022-12-01T06:00:59;1.33;;;1.00;;
44694;SDS011;32845;59.422;17.930;2022-12-01T06:05:30;2.78;;;0.93;;
44694;SDS011;32845;59.422;17.930;2022-12-01T06:10:01;1.48;;;1.08;;
44694;SDS011;32845;59.422;17.930;2022-12-01T06:14:32;1.23;;;0.98;;
44694;SDS011;32845;59.422;17.930;2022-12-01T06:19:02;1.67;;;1.27;;
44694;SDS011;32845;59.422;17.930;2022-12-01T06:23:34;1.02;;;0.77;;
44694;SDS011;32845;59.422;17.930;2022-12-01T06:28:04;2.55;;;1.15;;
44694;SDS011;32845;59.422;17.930;2022-12-01T06:32:44;1.55;;;1.10;;
44694;SDS011;32845;59.422;17.930;2022-12-01T06:37:15;1.67;;;1.10;;
44694;SDS011;32845;59.422;17.930;2022-12-01T06:41:45;2.10;;;1.25;;
44694;SDS011;32845;59.422;17.930;2022-12-01T06:46:16;1.00;;;0.90;;
44694;SDS011;32845;59.422;17.930;2022-12-01T06:50:55;2.40;;;1.10;;
44694;SDS011;32845;59.422;17.930;2022-12-01T06:55:30;1.33;;;1.02;;
44694;SDS011;32845;59.422;17.930;2022-12-01T07:00:00;2.55;;;1.10;;
44694;SDS011;32845;59.422;17.930;2022-12-01T07:04:32;2.17;;;0.82;;
44694;SDS011;32845;59.422;17.930;2022-12-01T07:09:03;1.88;;;1.25;;
44694;SDS011;32845;59.422;17.930;2022-12-01T07:13:34;14.45;;;4.60;;
44694;SDS011;32845;59.422;17.930;2022-12-01T07:18:05;11.57;;;3.65;;
44694;SDS011;32845;59.422;17.930;2022-12-01T07:22:35;9.85;;;2.85;;
44694;SDS011;32845;59.422;17.930;2022-12-01T07:27:07;7.65;;;3.10;;
44694;SDS011;32845;59.422;17.930;2022-12-01T07:31:38;7.88;;;2.92;;
44694;SDS011;32845;59.422;17.930;2022-12-01T07:36:09;8.45;;;2.45;;
44694;SDS011;32845;59.422;17.930;2022-12-01T07:40:40;8.40;;;2.90;;
44694;SDS011;32845;59.422;17.930;2022-12-01T07:45:11;26.05;;;5.70;;
44694;SDS011;32845;59.422;17.930;2022-12-01T07:49:42;22.73;;;6.57;;
44694;SDS011;32845;59.422;17.930;2022-12-01T07:54:12;23.77;;;4.47;;
44694;SDS011;32845;59.422;17.930;2022-12-01T07:58:43;13.48;;;4.15;;
44694;SDS011;32845;59.422;17.930;2022-12-01T08:03:14;14.65;;;4.07;;
44694;SDS011;32845;59.422;17.930;2022-12-01T08:07:45;12.98;;;3.28;;
44694;SDS011;32845;59.422;17.930;2022-12-01T08:12:15;12.85;;;3.22;;
44694;SDS011;32845;59.422;17.930;2022-12-01T08:16:47;13.45;;;2.60;;
44694;SDS011;32845;59.422;17.930;2022-12-01T08:21:19;10.18;;;3.03;;
44694;SDS011;32845;59.422;17.930;2022-12-01T08:25:51;7.45;;;2.75;;
44694;SDS011;32845;59.422;17.930;2022-12-01T08:30:21;10.65;;;3.20;;
44694;SDS011;32845;59.422;17.930;2022-12-01T08:34:52;6.18;;;2.03;;
44694;SDS011;32845;59.422;17.930;2022-12-01T08:39:23;3.85;;;1.88;;
44694;SDS011;32845;59.422;17.930;2022-12-01T08:43:53;6.60;;;2.40;;
44694;SDS011;32845;59.422;17.930;2022-12-01T08:48:25;8.02;;;2.00;;
44694;SDS011;32845;59.422;17.930;2022-12-01T08:52:59;12.18;;;2.08;;
44694;SDS011;32845;59.422;17.930;2022-12-01T08:57:29;6.47;;;2.17;;
44694;SDS011;32845;59.422;17.930;2022-12-01T09:02:00;5.47;;;2.20;;
44694;SDS011;32845;59.422;17.930;2022-12-01T09:06:32;6.05;;;2.00;;
44694;SDS011;32845;59.422;17.930;2022-12-01T09:11:16;3.47;;;1.75;;
44694;SDS011;32845;59.422;17.930;2022-12-01T09:15:57;4.07;;;1.75;;
44694;SDS011;32845;59.422;17.930;2022-12-01T09:20:33;5.28;;;1.80;;
44694;SDS011;32845;59.422;17.930;2022-12-01T09:25:04;3.17;;;1.50;;
44694;SDS011;32845;59.422;17.930;2022-12-01T09:29:37;3.00;;;1.90;;
44694;SDS011;32845;59.422;17.930;2022-12-01T09:34:10;7.47;;;1.98;;
44694;SDS011;32845;59.422;17.930;2022-12-01T09:38:45;5.70;;;1.97;;
44694;SDS011;32845;59.422;17.930;2022-12-01T09:43:27;3.08;;;1.50;;
44694;SDS011;32845;59.422;17.930;2022-12-01T09:48:02;3.60;;;1.98;;
44694;SDS011;32845;59.422;17.930;2022-12-01T09:52:40;4.60;;;2.08;;
44694;SDS011;32845;59.422;17.930;2022-12-01T09:57:16;4.20;;;1.75;;
44694;SDS011;32845;59.422;17.930;2022-12-01T10:01:57;4.13;;;2.15;;
44694;SDS011;32845;59.422;17.930;2022-12-01T10:06:51;2.60;;;1.67;;
44694;SDS011;32845;59.422;17.930;2022-12-01T10:11:34;5.90;;;1.77;;
44694;SDS011;32845;59.422;17.930;2022-12-01T10:16:08;5.80;;;2.60;;
44694;SDS011;32845;59.422;17.930;2022-12-01T10:21:17;4.63;;;1.95;;
44694;SDS011;32845;59.422;17.930;2022-12-01T10:25:58;3.67;;;2.05;;
44694;SDS011;32845;59.422;17.930;2022-12-01T10:30:40;7.88;;;2.13;;
44694;SDS011;32845;59.422;17.930;2022-12-01T10:35:20;3.80;;;1.80;;
44694;SDS011;32845;59.422;17.930;2022-12-01T10:39:54;3.90;;;1.88;;
44694;SDS011;32845;59.422;17.930;2022-12-01T10:44:25;8.88;;;1.95;;
44694;SDS011;32845;59.422;17.930;2022-12-01T10:48:58;5.50;;;2.00;;
44694;SDS011;32845;59.422;17.930;2022-12-01T10:53:36;6.75;;;2.13;;
44694;SDS011;32845;59.422;17.930;2022-12-01T10:58:13;3.47;;;1.73;;
44694;SDS011;32845;59.422;17.930;2022-12-01T11:02:56;3.85;;;1.95;;
44694;SDS011;32845;59.422;17.930;2022-12-01T11:07:33;5.35;;;2.05;;
44694;SDS011;32845;59.422;17.930;2022-12-01T11:12:15;4.97;;;1.67;;
44694;SDS011;32845;59.422;17.930;2022-12-01T11:16:50;6.17;;;1.70;;
44694;SDS011;32845;59.422;17.930;2022-12-01T11:21:26;3.35;;;1.77;;
44694;SDS011;32845;59.422;17.930;2022-12-01T11:30:39;2.33;;;1.40;;
44694;SDS011;32845;59.422;17.930;2022-12-01T11:39:48;4.97;;;1.83;;
44694;SDS011;32845;59.422;17.930;2022-12-01T11:44:20;3.58;;;1.80;;
44694;SDS011;32845;59.422;17.930;2022-12-01T11:48:56;3.72;;;1.63;;
44694;SDS011;32845;59.422;17.930;2022-12-01T11:53:40;3.20;;;1.52;;
44694;SDS011;32845;59.422;17.930;2022-12-01T11:58:12;5.20;;;2.05;;
44694;SDS011;32845;59.422;17.930;2022-12-01T12:02:47;3.55;;;1.40;;
44694;SDS011;32845;59.422;17.930;2022-12-01T12:26:46;2.25;;;1.30;;
44694;SDS011;32845;59.422;17.930;2022-12-01T12:36:14;1.75;;;1.50;;
44694;SDS011;32845;59.422;17.930;2022-12-01T12:55:43;2.15;;;1.35;;
44694;SDS011;32845;59.422;17.930;2022-12-01T13:05:39;2.03;;;1.23;;
44694;SDS011;32845;59.422;17.930;2022-12-01T13:09:52;1.77;;;1.23;;
44694;SDS011;32845;59.422;17.930;2022-12-01T13:14:38;1.90;;;1.50;;
44694;SDS011;32845;59.422;17.930;2022-12-01T13:19:30;4.13;;;1.50;;
44694;SDS011;32845;59.422;17.930;2022-12-01T13:24:04;4.32;;;1.33;;
44694;SDS011;32845;59.422;17.930;2022-12-01T13:28:40;2.92;;;1.42;;
44694;SDS011;32845;59.422;17.930;2022-12-01T13:33:16;1.50;;;1.30;;
44694;SDS011;32845;59.422;17.930;2022-12-01T13:37:47;1.33;;;1.05;;
44694;SDS011;32845;59.422;17.930;2022-12-01T13:46:54;1.83;;;1.35;;
44694;SDS011;32845;59.422;17.930;2022-12-01T13:56:59;1.60;;;1.00;;
44694;SDS011;32845;59.422;17.930;2022-12-01T14:01:44;1.80;;;1.20;;
44694;SDS011;32845;59.422;17.930;2022-12-01T14:07:11;2.08;;;1.27;;
44694;SDS011;32845;59.422;17.930;2022-12-01T14:16:01;1.35;;;1.20;;
44694;SDS011;32845;59.422;17.930;2022-12-01T14:20:34;2.22;;;1.50;;
44694;SDS011;32845;59.422;17.930;2022-12-01T14:29:51;2.97;;;1.38;;
44694;SDS011;32845;59.422;17.930;2022-12-01T14:34:22;2.20;;;1.13;;
44694;SDS011;32845;59.422;17.930;2022-12-01T14:43:31;2.13;;;1.40;;
44694;SDS011;32845;59.422;17.930;2022-12-01T14:48:23;1.17;;;0.98;;
44694;SDS011;32845;59.422;17.930;2022-12-01T14:53:03;1.80;;;1.10;;
44694;SDS011;32845;59.422;17.930;2022-12-01T14:57:45;2.00;;;1.23;;
44694;SDS011;32845;59.422;17.930;2022-12-01T15:02:19;1.70;;;1.07;;
44694;SDS011;32845;59.422;17.930;2022-12-01T15:06:53;1.42;;;1.10;;
44694;SDS011;32845;59.422;17.930;2022-12-01T15:11:30;1.52;;;1.02;;
44694;SDS011;32845;59.422;17.930;2022-12-01T15:16:03;1.73;;;1.00;;
44694;SDS011;32845;59.422;17.930;2022-12-01T15:20:42;2.53;;;1.00;;
44694;SDS011;32845;59.422;17.930;2022-12-01T15:25:13;2.65;;;1.05;;
44694;SDS011;32845;59.422;17.930;2022-12-01T15:29:44;1.45;;;1.13;;
44694;SDS011;32845;59.422;17.930;2022-12-01T15:34:20;3.67;;;1.05;;
44694;SDS011;32845;59.422;17.930;2022-12-01T15:38:53;1.57;;;1.10;;
44694;SDS011;32845;59.422;17.930;2022-12-01T15:43:31;2.00;;;1.30;;
44694;SDS011;32845;59.422;17.930;2022-12-01T15:48:13;1.52;;;1.00;;
44694;SDS011;32845;59.422;17.930;2022-12-01T15:52:54;1.17;;;1.00;;
44694;SDS011;32845;59.422;17.930;2022-12-01T15:57:26;1.60;;;1.10;;
44694;SDS011;32845;59.422;17.930;2022-12-01T16:01:57;1.45;;;1.08;;
44694;SDS011;32845;59.422;17.930;2022-12-01T16:06:29;2.40;;;1.30;;
44694;SDS011;32845;59.422;17.930;2022-12-01T16:15:43;1.60;;;1.10;;
44694;SDS011;32845;59.422;17.930;2022-12-01T16:20:32;1.00;;;0.90;;
44694;SDS011;32845;59.422;17.930;2022-12-01T16:25:04;1.52;;;1.13;;
44694;SDS011;32845;59.422;17.930;2022-12-01T16:29:47;1.90;;;1.00;;
44694;SDS011;32845;59.422;17.930;2022-12-01T16:34:20;2.15;;;1.17;;
44694;SDS011;32845;59.422;17.930;2022-12-01T16:38:52;1.88;;;1.17;;
44694;SDS011;32845;59.422;17.930;2022-12-01T16:43:23;1.20;;;1.05;;
44694;SDS011;32845;59.422;17.930;2022-12-01T16:47:56;1.05;;;0.95;;
44694;SDS011;32845;59.422;17.930;2022-12-01T16:52:26;1.90;;;1.10;;
44694;SDS011;32845;59.422;17.930;2022-12-01T16:56:57;1.50;;;1.20;;
44694;SDS011;32845;59.422;17.930;2022-12-01T17:01:28;1.45;;;1.10;;
44694;SDS011;32845;59.422;17.930;2022-12-01T17:05:59;1.50;;;1.10;;
44694;SDS011;32845;59.422;17.930;2022-12-01T17:10:31;1.63;;;1.13;;
44694;SDS011;32845;59.422;17.930;2022-12-01T17:15:02;2.17;;;1.25;;
44694;SDS011;32845;59.422;17.930;2022-12-01T17:19:40;1.67;;;1.10;;
44694;SDS011;32845;59.422;17.930;2022-12-01T17:24:10;1.77;;;1.30;;
44694;SDS011;32845;59.422;17.930;2022-12-01T17:28:41;1.77;;;1.30;;
44694;SDS011;32845;59.422;17.930;2022-12-01T17:33:12;1.80;;;1.10;;
44694;SDS011;32845;59.422;17.930;2022-12-01T17:37:42;2.22;;;1.20;;
44694;SDS011;32845;59.422;17.930;2022-12-01T17:42:13;2.13;;;1.30;;
44694;SDS011;32845;59.422;17.930;2022-12-01T17:46:44;1.65;;;1.08;;
44694;SDS011;32845;59.422;17.930;2022-12-01T17:51:15;1.75;;;1.40;;
44694;SDS011;32845;59.422;17.930;2022-12-01T17:55:45;1.40;;;1.08;;
44694;SDS011;32845;59.422;17.930;2022-12-01T18:00:21;1.65;;;1.27;;
44694;SDS011;32845;59.422;17.930;2022-12-01T18:04:52;2.15;;;1.40;;
44694;SDS011;32845;59.422;17.930;2022-12-01T18:09:23;4.80;;;1.45;;
44694;SDS011;32845;59.422;17.930;2022-12-01T18:13:53;2.45;;;1.50;;
44694;SDS011;32845;59.422;17.930;2022-12-01T18:18:24;3.05;;;1.55;;
44694;SDS011;32845;59.422;17.930;2022-12-01T18:22:55;1.77;;;1.20;;
44694;SDS011;32845;59.422;17.930;2022-12-01T18:27:25;1.95;;;1.30;;
44694;SDS011;32845;59.422;17.930;2022-12-01T18:31:57;1.98;;;1.45;;
44694;SDS011;32845;59.422;17.930;2022-12-01T18:36:29;1.80;;;1.40;;
44694;SDS011;32845;59.422;17.930;2022-12-01T18:41:06;3.05;;;1.48;;
44694;SDS011;32845;59.422;17.930;2022-12-01T18:45:38;1.98;;;1.20;;
44694;SDS011;32845;59.422;17.930;2022-12-01T18:50:09;2.40;;;1.60;;
44694;SDS011;32845;59.422;17.930;2022-12-01T18:54:39;2.20;;;1.45;;
44694;SDS011;32845;59.422;17.930;2022-12-01T18:59:10;2.22;;;1.40;;
44694;SDS011;32845;59.422;17.930;2022-12-01T19:03:42;2.88;;;1.80;;
44694;SDS011;32845;59.422;17.930;2022-12-01T19:08:13;1.90;;;1.40;;
44694;SDS011;32845;59.422;17.930;2022-12-01T19:12:44;2.03;;;1.13;;
44694;SDS011;32845;59.422;17.930;2022-12-01T19:17:15;2.13;;;1.45;;
44694;SDS011;32845;59.422;17.930;2022-12-01T19:21:45;2.15;;;1.50;;
44694;SDS011;32845;59.422;17.930;2022-12-01T19:26:17;2.42;;;1.50;;
44694;SDS011;32845;59.422;17.930;2022-12-01T19:30:49;2.15;;;1.50;;
44694;SDS011;32845;59.422;17.930;2022-12-01T19:35:20;2.55;;;1.67;;
44694;SDS011;32845;59.422;17.930;2022-12-01T19:39:51;2.58;;;1.60;;
44694;SDS011;32845;59.422;17.930;2022-12-01T19:44:22;2.28;;;1.40;;
44694;SDS011;32845;59.422;17.930;2022-12-01T19:48:59;2.22;;;1.75;;
44694;SDS011;32845;59.422;17.930;2022-12-01T19:53:30;2.35;;;1.40;;
44694;SDS011;32845;59.422;17.930;2022-12-01T19:58:01;1.25;;;1.10;;
44694;SDS011;32845;59.422;17.930;2022-12-01T20:02:33;2.50;;;1.80;;
44694;SDS011;32845;59.422;17.930;2022-12-01T20:07:04;2.78;;;1.73;;
44694;SDS011;32845;59.422;17.930;2022-12-01T20:11:35;2.08;;;1.42;;
44694;SDS011;32845;59.422;17.930;2022-12-01T20:16:12;3.05;;;1.58;;
44694;SDS011;32845;59.422;17.930;2022-12-01T20:20:46;3.83;;;1.67;;
44694;SDS011;32845;59.422;17.930;2022-12-01T20:25:17;2.45;;;1.45;;
44694;SDS011;32845;59.422;17.930;2022-12-01T20:29:48;1.98;;;1.45;;
44694;SDS011;32845;59.422;17.930;2022-12-01T20:34:20;2.20;;;1.42;;
44694;SDS011;32845;59.422;17.930;2022-12-01T20:38:54;3.17;;;1.60;;
44694;SDS011;32845;59.422;17.930;2022-12-01T20:43:25;2.38;;;1.52;;
44694;SDS011;32845;59.422;17.930;2022-12-01T20:47:56;2.22;;;1.33;;
44694;SDS011;32845;59.422;17.930;2022-12-01T20:52:27;3.13;;;1.50;;
44694;SDS011;32845;59.422;17.930;2022-12-01T20:56:58;2.60;;;1.40;;
44694;SDS011;32845;59.422;17.930;2022-12-01T21:01:29;1.95;;;1.38;;
44694;SDS011;32845;59.422;17.930;2022-12-01T21:06:00;2.92;;;1.55;;
44694;SDS011;32845;59.422;17.930;2022-12-01T21:10:31;10.13;;;1.40;;
44694;SDS011;32845;59.422;17.930;2022-12-01T21:19:57;4.07;;;1.60;;
44694;SDS011;32845;59.422;17.930;2022-12-01T21:24:38;2.83;;;1.58;;
44694;SDS011;32845;59.422;17.930;2022-12-01T21:33:48;3.67;;;1.60;;
44694;SDS011;32845;59.422;17.930;2022-12-01T21:38:18;3.13;;;1.50;;
44694;SDS011;32845;59.422;17.930;2022-12-01T21:42:49;2.03;;;1.60;;
44694;SDS011;32845;59.422;17.930;2022-12-01T21:47:21;6.35;;;1.90;;
44694;SDS011;32845;59.422;17.930;2022-12-01T21:51:58;4.75;;;1.80;;
44694;SDS011;32845;59.422;17.930;2022-12-01T21:56:29;4.55;;;1.48;;
44694;SDS011;32845;59.422;17.930;2022-12-01T22:01:00;4.35;;;1.67;;
44694;SDS011;32845;59.422;17.930;2022-12-01T22:05:43;2.90;;;1.77;;
44694;SDS011;32845;59.422;17.930;2022-12-01T22:15:38;2.17;;;1.30;;
44694;SDS011;32845;59.422;17.930;2022-12-01T22:20:20;3.15;;;1.77;;
44694;SDS011;32845;59.422;17.930;2022-12-01T22:24:52;2.67;;;1.52;;
44694;SDS011;32845;59.422;17.930;2022-12-01T22:29:44;2.80;;;1.42;;
44694;SDS011;32845;59.422;17.930;2022-12-01T22:34:16;2.53;;;1.52;;
44694;SDS011;32845;59.422;17.930;2022-12-01T22:38:49;2.33;;;1.60;;
44694;SDS011;32845;59.422;17.930;2022-12-01T22:43:21;3.67;;;1.65;;
44694;SDS011;32845;59.422;17.930;2022-12-01T22:47:59;3.38;;;1.60;;
44694;SDS011;32845;59.422;17.930;2022-12-01T22:52:31;4.20;;;1.52;;
44694;SDS011;32845;59.422;17.930;2022-12-01T22:57:03;7.20;;;1.65;;
44694;SDS011;32845;59.422;17.930;2022-12-01T23:01:52;7.72;;;1.77;;
44694;SDS011;32845;59.422;17.930;2022-12-01T23:11:14;2.42;;;1.70;;
44694;SDS011;32845;59.422;17.930;2022-12-01T23:15:45;2.47;;;1.58;;
44694;SDS011;32845;59.422;17.930;2022-12-01T23:24:49;2.80;;;1.67;;
44694;SDS011;32845;59.422;17.930;2022-12-01T23:29:20;6.03;;;2.17;;
44694;SDS011;32845;59.422;17.930;2022-12-01T23:33:51;3.13;;;1.58;;
44694;SDS011;32845;59.422;17.930;2022-12-01T23:38:43;2.67;;;1.63;;
44694;SDS011;32845;59.422;17.930;2022-12-01T23:43:24;7.95;;;1.65;;
44694;SDS011;32845;59.422;17.930;2022-12-01T23:47:58;3.95;;;1.75;;
44694;SDS011;32845;59.422;17.930;2022-12-01T23:52:31;3.45;;;1.60;;
44694;SDS011;32845;59.422;17.930;2022-12-01T23:57:19;3.20;;;1.50;;
